Vail, Washington
Current Conditions -  °F | °C
As of 10:54 AM on Monday 22 Dec 2014 (Local Time) from KOLM Reporting Station
Broken Clouds Broken Clouds  
Wind Chill: 46°   Ceiling: 12000
Heat Index: 46°   Visibility: 10mi
Dew Point: 43°   Wind: 3mph
Humidity: 89%   Direction: 220°SW
Pressure: 30.36"   Gusts: NA
Location:  46.8214°N, 122.662°W
Report Text: KOLM 221854Z 22003KT 10SM BKN120 08/06 A3036 RMK AO2 SLP283 T00780061
Loading
Personal Weather Stations






























Interactive Weather Map New forecast layout! Learn more

10-Day Weather Forecast

Advertisements
Track Severe Weather on mobile